createdAt,value
2023-04-20T00:02:03.126Z,100.00
2023-04-20T00:04:31.545Z,100.00
2023-04-20T00:06:59.795Z,100.00
2023-04-20T00:09:28.594Z,100.00
2023-04-20T00:11:56.836Z,100.00
2023-04-20T00:14:25.263Z,100.00
2023-04-20T00:16:53.516Z,100.00
2023-04-20T00:19:22.455Z,100.00
2023-04-20T00:21:50.564Z,100.00
2023-04-20T00:24:18.711Z,100.00
2023-04-20T00:26:46.925Z,100.00
2023-04-20T00:29:15.318Z,100.00
2023-04-20T00:31:43.601Z,100.00
2023-04-20T00:34:11.892Z,100.00
2023-04-20T00:36:40.066Z,100.00
2023-04-20T00:39:08.174Z,100.00
2023-04-20T00:41:36.464Z,100.00
2023-04-20T00:44:06.940Z,100.00
2023-04-20T00:46:35.792Z,100.00
2023-04-20T00:49:07.512Z,100.00
2023-04-20T00:51:35.982Z,100.00
2023-04-20T00:54:07.250Z,100.00
2023-04-20T00:56:35.445Z,100.00
2023-04-20T00:59:03.681Z,100.00
2023-04-20T01:01:32.115Z,100.00
2023-04-20T01:04:00.670Z,100.00
2023-04-20T01:06:30.836Z,100.00
2023-04-20T01:08:59.002Z,100.00
2023-04-20T01:11:27.384Z,100.00
2023-04-20T01:13:55.823Z,100.00
2023-04-20T01:16:24.098Z,100.00
2023-04-20T01:18:52.801Z,100.00
2023-04-20T01:21:23.998Z,100.00
2023-04-20T01:23:53.493Z,100.00
2023-04-20T01:26:24.458Z,100.00
2023-04-20T01:28:52.805Z,100.00
2023-04-20T01:31:21.356Z,100.00
2023-04-20T01:33:50.068Z,100.00
2023-04-20T01:36:22.152Z,100.00
2023-04-20T01:38:51.096Z,100.00
2023-04-20T01:41:19.285Z,100.00
2023-04-20T01:43:47.443Z,100.00
2023-04-20T01:46:15.658Z,100.00
2023-04-20T01:48:43.829Z,100.00
2023-04-20T01:51:11.997Z,100.00
2023-04-20T01:53:41.165Z,100.00
2023-04-20T01:56:09.248Z,100.00
2023-04-20T01:58:37.574Z,100.00
2023-04-20T02:01:06.089Z,100.00
2023-04-20T02:03:35.341Z,100.00
2023-04-20T02:06:03.974Z,100.00
2023-04-20T02:08:33.624Z,100.00
2023-04-20T02:11:01.925Z,100.00
2023-04-20T02:13:30.162Z,100.00
2023-04-20T02:15:58.430Z,100.00
2023-04-20T02:18:26.637Z,100.00
2023-04-20T02:20:54.903Z,100.00
2023-04-20T02:23:22.988Z,100.00
2023-04-20T02:25:51.224Z,100.00
2023-04-20T02:28:19.346Z,100.00
2023-04-20T02:30:47.670Z,100.00
2023-04-20T02:33:15.813Z,100.00
2023-04-20T02:35:44.000Z,100.00
2023-04-20T02:38:12.335Z,100.00
2023-04-20T02:40:40.815Z,100.00
2023-04-20T02:43:09.358Z,100.00
2023-04-20T02:45:38.446Z,100.00
2023-04-20T02:48:07.371Z,100.00
2023-04-20T02:50:38.096Z,100.00
2023-04-20T02:53:23.673Z,100.00
2023-04-20T02:55:57.535Z,100.00
2023-04-20T02:58:33.448Z,100.00
2023-04-20T03:01:17.201Z,100.00
2023-04-20T03:03:47.025Z,100.00
2023-04-20T03:06:15.810Z,100.00
2023-04-20T03:08:48.552Z,100.00
2023-04-20T03:11:43.431Z,100.00
2023-04-20T03:14:12.644Z,100.00
2023-04-20T03:16:41.975Z,100.00
2023-04-20T03:19:11.339Z,100.00
2023-04-20T03:21:39.531Z,100.00
2023-04-20T03:24:07.791Z,100.00
2023-04-20T03:26:36.646Z,100.00
2023-04-20T03:29:15.689Z,100.00
2023-04-20T03:31:44.377Z,100.00
2023-04-20T03:34:12.999Z,100.00
2023-04-20T03:36:41.565Z,100.00
2023-04-20T03:39:09.816Z,100.00
2023-04-20T03:41:38.013Z,100.00
2023-04-20T03:44:07.028Z,100.00
2023-04-20T03:46:35.169Z,100.00
2023-04-20T03:49:03.787Z,100.00
2023-04-20T03:51:32.516Z,100.00
2023-04-20T03:54:00.938Z,100.00
2023-04-20T03:56:30.145Z,100.00
2023-04-20T03:58:59.306Z,100.00
2023-04-20T04:01:28.303Z,100.00
2023-04-20T04:03:56.562Z,100.00
2023-04-20T04:06:25.088Z,100.00
2023-04-20T04:08:53.356Z,100.00
2023-04-20T04:11:21.471Z,100.00
2023-04-20T04:13:50.847Z,100.00
2023-04-20T04:16:19.800Z,100.00
2023-04-20T04:18:49.337Z,100.00
2023-04-20T04:21:17.496Z,100.00
2023-04-20T04:23:49.971Z,100.00
2023-04-20T04:26:38.307Z,100.00
2023-04-20T04:29:07.162Z,100.00
2023-04-20T04:31:35.498Z,100.00
2023-04-20T04:34:08.387Z,100.00
2023-04-20T04:36:48.159Z,100.00
2023-04-20T04:39:18.886Z,100.00
2023-04-20T04:41:54.372Z,100.00
2023-04-20T04:44:31.486Z,100.00
2023-04-20T04:47:03.127Z,100.00
2023-04-20T04:49:32.800Z,100.00
2023-04-20T04:52:01.629Z,100.00
2023-04-20T04:54:29.713Z,100.00
2023-04-20T04:56:58.597Z,100.00
2023-04-20T04:59:26.791Z,100.00
2023-04-20T05:01:55.057Z,100.00
2023-04-20T05:04:23.569Z,100.00
2023-04-20T05:06:51.761Z,100.00
2023-04-20T05:09:20.148Z,100.00
2023-04-20T05:11:48.588Z,100.00
2023-04-20T05:14:16.743Z,100.00
2023-04-20T05:16:44.927Z,100.00
2023-04-20T05:19:13.114Z,100.00
2023-04-20T05:21:41.401Z,100.00
2023-04-20T05:24:09.521Z,100.00
2023-04-20T05:26:37.649Z,100.00
2023-04-20T05:29:05.822Z,100.00
2023-04-20T05:31:34.616Z,100.00
2023-04-20T05:34:03.150Z,100.00
2023-04-20T05:36:33.759Z,100.00
2023-04-20T05:39:02.059Z,100.00
2023-04-20T05:41:30.675Z,100.00
2023-04-20T05:43:59.097Z,100.00
2023-04-20T05:46:29.461Z,100.00
2023-04-20T05:48:58.069Z,100.00
2023-04-20T05:51:29.240Z,100.00
2023-04-20T05:53:57.578Z,100.00
2023-04-20T05:56:25.904Z,100.00
2023-04-20T05:58:57.513Z,100.00
2023-04-20T06:01:26.052Z,100.00
2023-04-20T06:03:54.667Z,100.00
2023-04-20T06:06:23.262Z,100.00
2023-04-20T06:08:52.373Z,100.00
2023-04-20T06:11:22.941Z,100.00
2023-04-20T06:13:53.271Z,100.00
2023-04-20T06:16:21.509Z,100.00
2023-04-20T06:18:50.180Z,100.00
2023-04-20T06:21:19.780Z,100.00
2023-04-20T06:23:48.132Z,100.00
2023-04-20T06:26:17.452Z,100.00
2023-04-20T06:28:47.414Z,100.00
2023-04-20T06:31:15.874Z,100.00
2023-04-20T06:33:44.172Z,100.00
2023-04-20T06:36:12.387Z,100.00
2023-04-20T06:38:40.988Z,100.00
2023-04-20T06:41:09.283Z,100.00
2023-04-20T06:43:38.024Z,100.00
2023-04-20T06:46:09.333Z,100.00
2023-04-20T06:48:37.731Z,100.00
2023-04-20T06:51:08.069Z,100.00
2023-04-20T06:53:36.308Z,100.00
2023-04-20T06:56:04.741Z,100.00
2023-04-20T06:58:34.057Z,100.00
2023-04-20T07:01:05.059Z,100.00
2023-04-20T07:03:34.203Z,100.00
2023-04-20T07:06:04.846Z,100.00
2023-04-20T07:08:34.025Z,100.00
2023-04-20T07:11:03.416Z,100.00
2023-04-20T07:13:33.869Z,100.00
2023-04-20T07:16:03.208Z,100.00
2023-04-20T07:18:35.412Z,100.00
2023-04-20T07:21:04.179Z,100.00
2023-04-20T07:23:33.753Z,100.00
2023-04-20T07:26:02.007Z,100.00
2023-04-20T07:28:33.230Z,100.00
2023-04-20T07:31:01.502Z,100.00
2023-04-20T07:33:32.140Z,100.00
2023-04-20T07:36:00.599Z,100.00
2023-04-20T07:38:28.929Z,100.00
2023-04-20T07:40:57.092Z,100.00
2023-04-20T07:43:25.370Z,100.00
2023-04-20T07:45:53.861Z,100.00
2023-04-20T07:48:22.225Z,99.97
2023-04-20T07:50:50.622Z,99.26
2023-04-20T07:53:18.981Z,99.44
2023-04-20T07:55:48.166Z,99.81
2023-04-20T07:58:18.169Z,99.93
2023-04-20T08:00:47.471Z,99.42
2023-04-20T08:03:15.849Z,98.20
2023-04-20T08:05:44.692Z,97.07
2023-04-20T08:08:13.003Z,96.29
2023-04-20T08:10:47.517Z,95.57
2023-04-20T08:13:16.084Z,94.81
2023-04-20T08:15:44.380Z,95.01
2023-04-20T08:18:12.907Z,94.54
2023-04-20T08:20:41.599Z,94.36
2023-04-20T08:23:09.872Z,94.16
2023-04-20T08:25:41.281Z,94.68
2023-04-20T08:28:15.341Z,95.14
2023-04-20T08:30:48.041Z,94.88
2023-04-20T08:33:16.701Z,94.79
2023-04-20T08:35:45.772Z,95.49
2023-04-20T08:38:18.081Z,95.48
2023-04-20T08:40:49.139Z,95.77
2023-04-20T08:43:17.528Z,95.00
2023-04-20T08:45:52.590Z,94.00
2023-04-20T08:48:26.436Z,94.19
2023-04-20T08:50:56.173Z,92.91
2023-04-20T08:53:24.667Z,91.60
2023-04-20T08:55:52.866Z,90.86
2023-04-20T08:58:21.996Z,90.41
2023-04-20T09:00:50.511Z,92.08
2023-04-20T09:03:32.712Z,92.80
2023-04-20T09:06:01.426Z,92.61
2023-04-20T09:08:41.688Z,91.49
2023-04-20T09:11:27.150Z,91.28
2023-04-20T09:14:02.889Z,92.03
2023-04-20T09:16:31.773Z,91.22
2023-04-20T09:19:03.536Z,88.46
2023-04-20T09:21:32.793Z,87.56
2023-04-20T09:24:11.218Z,86.34
2023-04-20T09:26:41.687Z,86.07
2023-04-20T09:29:22.115Z,86.96
2023-04-20T09:31:53.333Z,88.13
2023-04-20T09:34:22.259Z,87.86
2023-04-20T09:36:54.971Z,87.60
2023-04-20T09:39:24.713Z,87.70
2023-04-20T09:41:52.990Z,87.27
2023-04-20T09:44:21.505Z,87.43
2023-04-20T09:46:49.779Z,86.71
2023-04-20T09:49:19.439Z,87.69
2023-04-20T09:51:48.109Z,87.62
2023-04-20T09:54:16.755Z,87.44
2023-04-20T09:56:46.275Z,87.93
2023-04-20T09:59:17.416Z,88.44
2023-04-20T10:01:45.965Z,86.46
2023-04-20T10:04:14.999Z,85.96
2023-04-20T10:06:55.292Z,86.18
2023-04-20T10:09:26.332Z,85.33
2023-04-20T10:12:06.973Z,84.15
2023-04-20T10:14:38.733Z,85.55
2023-04-20T10:17:09.546Z,87.03
2023-04-20T10:19:41.669Z,88.20
2023-04-20T10:22:12.491Z,86.31
2023-04-20T10:24:41.012Z,84.37
2023-04-20T10:27:20.701Z,83.80
2023-04-20T10:29:49.177Z,84.54
2023-04-20T10:32:29.086Z,84.31
2023-04-20T10:35:11.727Z,83.42
2023-04-20T10:37:51.514Z,85.17
2023-04-20T10:40:29.798Z,84.41
2023-04-20T10:42:58.294Z,82.88
2023-04-20T10:45:40.457Z,81.29
2023-04-20T10:48:12.328Z,80.72
2023-04-20T10:50:40.820Z,79.69
2023-04-20T10:53:21.501Z,78.14
2023-04-20T10:56:01.515Z,79.09
2023-04-20T10:58:29.910Z,79.56
2023-04-20T11:01:03.745Z,80.96
2023-04-20T11:03:34.848Z,78.82
2023-04-20T11:06:04.251Z,75.79
2023-04-20T11:08:43.832Z,74.59
2023-04-20T11:11:19.505Z,71.66
2023-04-20T11:13:52.710Z,72.40
2023-04-20T11:16:30.427Z,74.49
2023-04-20T11:19:05.964Z,75.95
2023-04-20T11:21:40.147Z,75.80
2023-04-20T11:24:28.754Z,77.01
2023-04-20T11:26:58.231Z,70.53
2023-04-20T11:29:33.362Z,66.83
2023-04-20T11:32:05.825Z,65.93
2023-04-20T11:34:35.517Z,67.49
2023-04-20T11:37:08.499Z,68.34
2023-04-20T11:39:37.981Z,70.04
2023-04-20T11:42:06.654Z,69.86
2023-04-20T11:44:36.807Z,70.56
2023-04-20T11:47:06.283Z,70.53
2023-04-20T11:49:34.629Z,72.40
2023-04-20T11:52:03.567Z,70.89
2023-04-20T11:54:35.169Z,71.25
2023-04-20T11:57:04.482Z,71.41
2023-04-20T11:59:33.242Z,69.19
2023-04-20T12:02:04.357Z,69.26
2023-04-20T12:04:34.468Z,68.62
2023-04-20T12:07:03.162Z,65.49
2023-04-20T12:09:36.133Z,63.38
2023-04-20T12:12:05.638Z,64.27
2023-04-20T12:14:34.145Z,66.49
2023-04-20T12:17:04.094Z,68.28
2023-04-20T12:19:32.502Z,65.66
2023-04-20T12:22:00.768Z,64.35
2023-04-20T12:24:29.253Z,64.28
2023-04-20T12:26:58.230Z,64.75
2023-04-20T12:29:26.541Z,63.70
2023-04-20T12:31:54.877Z,61.72
2023-04-20T12:34:23.456Z,61.88
2023-04-20T12:36:51.695Z,61.87
2023-04-20T12:39:19.917Z,62.34
2023-04-20T12:41:48.285Z,59.81
2023-04-20T12:44:17.568Z,60.35
2023-04-20T12:46:46.274Z,58.53
2023-04-20T12:49:14.724Z,58.04
2023-04-20T12:51:43.149Z,56.65
2023-04-20T12:54:12.051Z,57.92
2023-04-20T12:56:40.471Z,59.27
2023-04-20T12:59:09.021Z,59.64
2023-04-20T13:01:37.353Z,60.75
2023-04-20T13:04:05.882Z,58.94
2023-04-20T13:06:34.516Z,58.97
2023-04-20T13:09:04.098Z,58.86
2023-04-20T13:11:32.444Z,59.74
2023-04-20T13:14:01.703Z,59.69
2023-04-20T13:16:30.241Z,61.40
2023-04-20T13:18:58.677Z,62.69
2023-04-20T13:21:26.981Z,61.93
2023-04-20T13:23:56.804Z,61.41
2023-04-20T13:26:25.587Z,61.27
2023-04-20T13:28:54.439Z,62.10
2023-04-20T13:31:22.934Z,62.26
2023-04-20T13:33:54.980Z,62.56
2023-04-20T13:36:24.665Z,62.66
2023-04-20T13:38:53.736Z,62.65
2023-04-20T13:41:23.795Z,63.27
2023-04-20T13:43:52.104Z,63.36
2023-04-20T13:46:21.026Z,63.79
2023-04-20T13:48:49.452Z,64.32
2023-04-20T13:51:17.724Z,63.04
2023-04-20T13:53:48.179Z,63.43
2023-04-20T13:56:16.828Z,63.93
2023-04-20T13:58:45.231Z,63.88
2023-04-20T14:01:17.598Z,63.90
2023-04-20T14:03:46.056Z,63.58
2023-04-20T14:06:14.612Z,62.63
2023-04-20T14:08:42.869Z,62.68
2023-04-20T14:11:11.358Z,61.31
2023-04-20T14:13:41.241Z,61.46
2023-04-20T14:16:11.134Z,61.35
2023-04-20T14:18:39.546Z,61.46
2023-04-20T14:21:08.130Z,61.28
2023-04-20T14:23:36.636Z,60.98
2023-04-20T14:26:05.098Z,61.32
2023-04-20T14:28:34.667Z,62.62
2023-04-20T14:31:03.000Z,62.90
2023-04-20T14:33:31.425Z,62.44
2023-04-20T14:35:59.813Z,62.42
2023-04-20T14:38:28.188Z,62.11
2023-04-20T14:40:56.637Z,63.09
2023-04-20T14:43:25.027Z,63.49
2023-04-20T14:45:55.326Z,63.55
2023-04-20T14:48:25.113Z,65.68
2023-04-20T14:50:53.604Z,66.14
2023-04-20T14:53:22.114Z,65.94
2023-04-20T14:55:51.311Z,65.16
2023-04-20T14:58:20.738Z,64.85
2023-04-20T15:00:49.263Z,64.96
2023-04-20T15:03:18.343Z,65.11
2023-04-20T15:05:47.504Z,65.10
2023-04-20T15:08:16.061Z,64.92
2023-04-20T15:10:44.309Z,62.81
2023-04-20T15:13:13.311Z,63.15
2023-04-20T15:15:48.919Z,63.66
2023-04-20T15:18:19.158Z,63.68
2023-04-20T15:20:47.461Z,63.82
2023-04-20T15:23:15.636Z,65.13
2023-04-20T15:25:44.049Z,65.21
2023-04-20T15:28:12.611Z,65.90
2023-04-20T15:30:41.699Z,66.03
2023-04-20T15:33:11.078Z,66.00
2023-04-20T15:35:39.502Z,66.40
2023-04-20T15:38:07.814Z,66.42
2023-04-20T15:40:36.291Z,66.60
2023-04-20T15:43:04.691Z,66.26
2023-04-20T15:45:33.072Z,65.93
2023-04-20T15:48:01.362Z,65.83
2023-04-20T15:50:29.696Z,66.46
2023-04-20T15:52:58.031Z,66.93
2023-04-20T15:55:26.488Z,68.40
2023-04-20T15:57:58.107Z,68.57
2023-04-20T16:00:27.035Z,68.88
2023-04-20T16:02:55.654Z,69.56
2023-04-20T16:05:24.258Z,68.67
2023-04-20T16:07:53.612Z,68.49
2023-04-20T16:10:23.684Z,70.04
2023-04-20T16:12:52.017Z,71.12
2023-04-20T16:15:20.806Z,71.22
2023-04-20T16:17:49.011Z,70.86
2023-04-20T16:20:17.395Z,70.71
2023-04-20T16:22:45.782Z,70.66
2023-04-20T16:25:22.498Z,70.63
2023-04-20T16:27:51.725Z,70.78
2023-04-20T16:30:20.165Z,70.68
2023-04-20T16:32:48.818Z,70.94
2023-04-20T16:35:17.319Z,71.39
2023-04-20T16:37:45.724Z,72.34
2023-04-20T16:40:14.051Z,73.08
2023-04-20T16:42:42.445Z,73.88
2023-04-20T16:45:10.807Z,74.32
2023-04-20T16:47:39.386Z,75.08
2023-04-20T16:50:08.112Z,75.73
2023-04-20T16:52:36.446Z,76.05
2023-04-20T16:55:05.318Z,76.73
2023-04-20T16:57:33.703Z,77.97
2023-04-20T17:00:01.946Z,78.33
2023-04-20T17:02:33.303Z,78.42
2023-04-20T17:05:02.358Z,78.60
2023-04-20T17:07:30.871Z,78.50
2023-04-20T17:09:59.840Z,78.93
2023-04-20T17:12:28.188Z,79.63
2023-04-20T17:14:56.467Z,80.04
2023-04-20T17:17:26.232Z,80.39
2023-04-20T17:19:54.670Z,80.35
2023-04-20T17:22:23.132Z,80.46
2023-04-20T17:24:52.226Z,81.00
2023-04-20T17:27:23.004Z,81.71
2023-04-20T17:29:51.746Z,81.96
2023-04-20T17:32:20.193Z,82.19
2023-04-20T17:34:48.932Z,82.79
2023-04-20T17:37:18.117Z,83.27
2023-04-20T17:39:46.641Z,83.92
2023-04-20T17:42:14.996Z,84.25
2023-04-20T17:44:43.361Z,84.63
2023-04-20T17:47:15.049Z,84.83
2023-04-20T17:49:43.440Z,85.18
2023-04-20T17:52:15.336Z,85.45
2023-04-20T17:54:43.827Z,85.59
2023-04-20T17:57:14.283Z,86.09
2023-04-20T17:59:42.665Z,86.48
2023-04-20T18:02:11.864Z,86.79
2023-04-20T18:04:41.053Z,87.01
2023-04-20T18:07:09.570Z,87.44
2023-04-20T18:09:39.088Z,87.84
2023-04-20T18:12:13.858Z,88.00
2023-04-20T18:14:42.566Z,88.46
2023-04-20T18:17:11.178Z,88.78
2023-04-20T18:19:41.065Z,89.30
2023-04-20T18:22:09.398Z,89.53
2023-04-20T18:24:38.333Z,89.71
2023-04-20T18:27:06.623Z,89.91
2023-04-20T18:29:35.381Z,90.01
2023-04-20T18:32:04.064Z,90.17
2023-04-20T18:34:32.440Z,90.17
2023-04-20T18:37:00.755Z,90.27
2023-04-20T18:39:30.065Z,90.59
2023-04-20T18:41:58.472Z,90.64
2023-04-20T18:44:28.556Z,90.84
2023-04-20T18:46:57.021Z,91.17
2023-04-20T18:49:25.343Z,91.56
2023-04-20T18:51:53.587Z,91.94
2023-04-20T18:54:22.007Z,92.26
2023-04-20T18:56:50.484Z,92.60
2023-04-20T18:59:18.697Z,93.09
2023-04-20T19:01:49.002Z,93.46
2023-04-20T19:04:18.031Z,93.91
2023-04-20T19:06:46.640Z,94.39
2023-04-20T19:09:15.140Z,94.88
2023-04-20T19:11:43.538Z,95.29
2023-04-20T19:14:12.251Z,95.73
2023-04-20T19:16:40.604Z,96.12
2023-04-20T19:19:09.898Z,96.72
2023-04-20T19:21:38.282Z,97.06
2023-04-20T19:24:07.066Z,97.52
2023-04-20T19:26:35.602Z,97.76
2023-04-20T19:29:04.564Z,98.11
2023-04-20T19:31:37.641Z,98.26
2023-04-20T19:34:07.051Z,98.62
2023-04-20T19:36:35.622Z,98.92
2023-04-20T19:39:04.307Z,99.28
2023-04-20T19:41:34.133Z,99.34
2023-04-20T19:44:06.450Z,99.57
2023-04-20T19:46:35.139Z,99.57
2023-04-20T19:49:03.455Z,99.80
2023-04-20T19:51:32.067Z,99.97
2023-04-20T19:54:01.640Z,100.00
2023-04-20T19:56:30.092Z,100.00
2023-04-20T19:58:58.413Z,100.00
2023-04-20T20:01:26.817Z,100.00
2023-04-20T20:03:55.448Z,100.00
2023-04-20T20:06:24.010Z,100.00
2023-04-20T20:08:52.318Z,100.00
2023-04-20T20:11:22.684Z,100.00
2023-04-20T20:13:51.889Z,100.00
2023-04-20T20:16:20.374Z,100.00
2023-04-20T20:18:48.894Z,100.00
2023-04-20T20:21:17.349Z,100.00
2023-04-20T20:23:46.186Z,100.00
2023-04-20T20:26:14.420Z,100.00
2023-04-20T20:28:42.825Z,100.00
2023-04-20T20:31:11.259Z,100.00
2023-04-20T20:33:39.735Z,100.00
2023-04-20T20:36:09.160Z,100.00
2023-04-20T20:38:39.885Z,100.00
2023-04-20T20:41:08.315Z,100.00
2023-04-20T20:43:37.476Z,100.00
2023-04-20T20:46:05.968Z,100.00
2023-04-20T20:48:34.636Z,100.00
2023-04-20T20:51:03.002Z,100.00
2023-04-20T20:53:31.502Z,100.00
2023-04-20T20:55:59.880Z,100.00
2023-04-20T20:58:28.341Z,100.00
2023-04-20T21:00:56.862Z,100.00
2023-04-20T21:03:25.811Z,100.00
2023-04-20T21:05:54.666Z,100.00
2023-04-20T21:08:23.039Z,100.00
2023-04-20T21:10:51.333Z,100.00
2023-04-20T21:13:19.755Z,100.00
2023-04-20T21:15:48.232Z,100.00
2023-04-20T21:18:16.651Z,100.00
2023-04-20T21:20:48.335Z,100.00
2023-04-20T21:23:21.409Z,100.00
2023-04-20T21:25:52.382Z,100.00
2023-04-20T21:28:20.766Z,100.00
2023-04-20T21:30:49.154Z,100.00
2023-04-20T21:33:17.540Z,100.00
2023-04-20T21:35:45.950Z,100.00
2023-04-20T21:38:14.254Z,100.00
2023-04-20T21:40:42.513Z,100.00
2023-04-20T21:43:11.242Z,100.00
2023-04-20T21:45:39.502Z,100.00
2023-04-20T21:48:07.838Z,100.00
2023-04-20T21:50:39.143Z,100.00
2023-04-20T21:53:07.540Z,100.00
2023-04-20T21:55:35.951Z,100.00
2023-04-20T21:58:04.261Z,100.00
2023-04-20T22:00:32.591Z,100.00
2023-04-20T22:03:01.158Z,100.00
2023-04-20T22:05:29.594Z,100.00
2023-04-20T22:07:58.305Z,100.00
2023-04-20T22:10:27.508Z,100.00
2023-04-20T22:12:55.865Z,100.00
2023-04-20T22:15:25.573Z,100.00
2023-04-20T22:17:54.061Z,100.00
2023-04-20T22:20:22.553Z,100.00
2023-04-20T22:22:50.938Z,100.00
2023-04-20T22:25:21.372Z,100.00
2023-04-20T22:27:49.877Z,100.00
2023-04-20T22:30:18.356Z,100.00
2023-04-20T22:32:46.705Z,100.00
2023-04-20T22:35:15.125Z,100.00
2023-04-20T22:37:43.427Z,100.00
2023-04-20T22:40:12.659Z,100.00
2023-04-20T22:42:40.935Z,100.00
2023-04-20T22:45:12.424Z,100.00
2023-04-20T22:47:42.234Z,100.00
2023-04-20T22:50:13.267Z,100.00
2023-04-20T22:52:41.829Z,100.00
2023-04-20T22:55:10.662Z,100.00
2023-04-20T22:57:39.259Z,100.00
2023-04-20T23:00:10.828Z,100.00
2023-04-20T23:02:41.164Z,100.00
2023-04-20T23:05:10.901Z,100.00
2023-04-20T23:08:57.443Z,100.00
2023-04-20T23:11:28.672Z,100.00
2023-04-20T23:13:56.928Z,100.00
2023-04-20T23:16:50.774Z,100.00
2023-04-20T23:19:19.294Z,100.00
2023-04-20T23:21:47.658Z,100.00
2023-04-20T23:24:15.950Z,100.00
2023-04-20T23:26:44.464Z,100.00
2023-04-20T23:29:12.820Z,100.00
2023-04-20T23:31:41.160Z,100.00
2023-04-20T23:34:09.497Z,100.00
2023-04-20T23:36:37.745Z,100.00
2023-04-20T23:39:06.338Z,100.00
2023-04-20T23:41:34.682Z,100.00
2023-04-20T23:44:03.071Z,100.00
2023-04-20T23:46:31.460Z,100.00
2023-04-20T23:48:59.766Z,100.00
2023-04-20T23:51:28.075Z,100.00
2023-04-20T23:53:56.404Z,100.00
2023-04-20T23:56:24.729Z,100.00
2023-04-20T23:58:52.977Z,100.00
